createdAt,value
2022-10-14T00:02:58.211Z,5.63
2022-10-14T00:08:02.131Z,5.90
2022-10-14T00:13:04.770Z,5.95
2022-10-14T00:18:08.085Z,6.32
2022-10-14T00:23:12.076Z,6.95
2022-10-14T00:28:14.742Z,6.18
2022-10-14T00:33:17.374Z,6.43
2022-10-14T00:38:21.314Z,6.80
2022-10-14T00:43:25.276Z,7.25
2022-10-14T00:48:27.977Z,6.40
2022-10-14T00:53:33.155Z,5.93
2022-10-14T00:58:36.085Z,6.03
2022-10-14T01:03:41.607Z,5.85
2022-10-14T01:08:48.405Z,7.13
2022-10-14T01:13:57.826Z,6.15
2022-10-14T01:19:15.262Z,5.53
2022-10-14T01:24:41.797Z,6.45
2022-10-14T01:30:09.616Z,5.88
2022-10-14T01:35:19.439Z,7.03
2022-10-14T01:40:30.220Z,5.88
2022-10-14T01:45:35.871Z,6.35
2022-10-14T01:50:39.911Z,7.82
2022-10-14T01:55:44.718Z,6.85
2022-10-14T02:00:48.928Z,7.00
2022-10-14T02:05:55.687Z,6.82
2022-10-14T02:11:06.883Z,6.68
2022-10-14T02:16:15.816Z,7.07
2022-10-14T02:21:23.111Z,6.70
2022-10-14T02:26:27.172Z,7.35
2022-10-14T02:31:32.495Z,6.95
2022-10-14T02:36:36.873Z,6.78
2022-10-14T02:41:41.009Z,6.95
2022-10-14T02:46:45.563Z,7.85
2022-10-14T02:51:48.362Z,6.53
2022-10-14T02:56:50.970Z,6.45
2022-10-14T03:01:54.936Z,8.23
2022-10-14T03:06:57.722Z,7.00
2022-10-14T03:12:01.461Z,5.88
2022-10-14T03:17:06.472Z,7.88
2022-10-14T03:22:10.066Z,7.43
2022-10-14T03:27:14.207Z,7.05
2022-10-14T03:32:20.387Z,6.70
2022-10-14T03:37:42.097Z,6.72
2022-10-14T03:42:44.843Z,7.60
2022-10-14T03:47:49.302Z,7.70
2022-10-14T03:52:55.402Z,7.18
2022-10-14T03:58:05.120Z,7.28
2022-10-14T04:03:09.497Z,7.13
2022-10-14T04:08:16.752Z,6.82
2022-10-14T04:13:26.813Z,7.03
2022-10-14T04:18:31.369Z,7.47
2022-10-14T04:23:36.961Z,7.35
2022-10-14T04:28:48.087Z,6.32
2022-10-14T04:34:07.711Z,6.90
2022-10-14T04:39:15.275Z,10.70
2022-10-14T04:44:18.294Z,7.68
2022-10-14T04:49:27.037Z,7.78
2022-10-14T04:54:39.513Z,7.97
2022-10-14T04:59:42.153Z,9.00
2022-10-14T05:05:18.539Z,8.18
2022-10-14T05:10:25.674Z,6.97
2022-10-14T05:15:30.547Z,7.43
2022-10-14T05:20:48.071Z,8.30
2022-10-14T05:25:51.725Z,9.85
2022-10-14T05:30:55.540Z,7.38
2022-10-14T05:36:00.288Z,7.75
2022-10-14T05:41:07.537Z,7.85
2022-10-14T05:46:11.437Z,7.07
2022-10-14T05:51:21.124Z,7.68
2022-10-14T05:56:28.113Z,7.47
2022-10-14T06:01:31.384Z,7.95
2022-10-14T06:06:35.436Z,8.13
2022-10-14T06:11:38.323Z,7.57
2022-10-14T06:16:42.557Z,9.15
2022-10-14T06:21:47.111Z,8.20
2022-10-14T06:26:50.033Z,7.40
2022-10-14T06:31:52.782Z,8.43
2022-10-14T06:37:01.990Z,10.02
2022-10-14T06:42:08.351Z,7.47
2022-10-14T06:47:15.113Z,7.38
2022-10-14T06:52:19.302Z,7.90
2022-10-14T06:57:22.045Z,7.80
2022-10-14T07:02:25.055Z,7.15
2022-10-14T07:07:29.297Z,9.23
2022-10-14T07:12:31.894Z,10.95
2022-10-14T07:17:34.548Z,7.80
2022-10-14T07:22:39.183Z,6.85
2022-10-14T07:27:41.929Z,7.97
2022-10-14T07:32:44.533Z,8.15
2022-10-14T07:37:49.113Z,8.55
2022-10-14T07:42:51.700Z,7.47
2022-10-14T07:47:54.292Z,7.22
2022-10-14T07:53:01.219Z,7.30
2022-10-14T07:58:04.260Z,7.00
2022-10-14T08:03:06.858Z,11.38
2022-10-14T08:08:11.852Z,8.45
2022-10-14T08:13:14.485Z,7.15
2022-10-14T08:18:17.120Z,6.63
2022-10-14T08:23:21.286Z,7.50
2022-10-14T08:28:23.952Z,7.45
2022-10-14T08:33:26.640Z,6.88
2022-10-14T08:38:30.745Z,6.82
2022-10-14T08:43:35.854Z,6.80
2022-10-14T08:48:38.911Z,7.32
2022-10-14T08:53:45.625Z,6.57
2022-10-14T08:58:50.259Z,6.32
2022-10-14T09:03:56.221Z,6.72
2022-10-14T09:09:06.985Z,5.65
2022-10-14T09:14:13.026Z,6.65
2022-10-14T09:19:22.184Z,6.15
2022-10-14T09:24:27.861Z,4.85
2022-10-14T09:29:32.392Z,5.68
2022-10-14T09:34:37.955Z,5.30
2022-10-14T09:39:42.548Z,5.25
2022-10-14T09:44:45.146Z,5.82
2022-10-14T09:49:49.249Z,5.32
2022-10-14T09:54:58.561Z,5.07
2022-10-14T10:00:06.463Z,3.97
2022-10-14T10:05:13.365Z,3.72
2022-10-14T10:10:21.937Z,3.65
2022-10-14T10:15:24.805Z,3.47
2022-10-14T10:20:33.126Z,3.70
2022-10-14T10:25:37.141Z,2.92
2022-10-14T10:30:46.281Z,2.50
2022-10-14T10:36:10.262Z,2.50
2022-10-14T10:41:26.714Z,2.03
2022-10-14T10:46:46.040Z,3.15
2022-10-14T10:51:55.699Z,2.70
2022-10-14T10:57:04.303Z,2.75
2022-10-14T11:02:33.223Z,1.90
2022-10-14T11:07:59.376Z,2.00
2022-10-14T11:13:13.149Z,1.77
2022-10-14T11:18:21.644Z,1.40
2022-10-14T11:23:44.671Z,1.35
2022-10-14T11:28:54.778Z,1.35
2022-10-14T11:34:11.059Z,1.10
2022-10-14T11:39:24.604Z,0.90
2022-10-14T11:44:32.679Z,1.02
2022-10-14T11:49:39.970Z,1.05
2022-10-14T11:54:45.495Z,0.95
2022-10-14T12:00:11.282Z,1.02
2022-10-14T12:05:21.729Z,1.27
2022-10-14T12:10:28.665Z,1.10
2022-10-14T12:15:33.230Z,0.90
2022-10-14T12:20:41.423Z,1.00
2022-10-14T12:25:49.832Z,1.70
2022-10-14T12:31:25.800Z,11.73
2022-10-14T12:41:43.629Z,1.00
2022-10-14T12:46:49.399Z,0.85
2022-10-14T12:51:56.080Z,1.10
2022-10-14T12:57:01.394Z,1.15
2022-10-14T13:02:17.945Z,1.40
2022-10-14T13:07:45.794Z,1.02
2022-10-14T13:12:48.999Z,1.25
2022-10-14T13:17:53.928Z,1.35
2022-10-14T13:23:19.159Z,1.10
2022-10-14T13:28:25.500Z,1.17
2022-10-14T13:33:34.115Z,2.53
2022-10-14T13:38:37.627Z,1.15
2022-10-14T13:43:43.256Z,1.30
2022-10-14T13:48:48.441Z,2.05
2022-10-14T13:53:52.779Z,1.00
2022-10-14T13:58:55.484Z,1.15
2022-10-14T14:03:59.953Z,1.88
2022-10-14T14:09:04.007Z,0.95
2022-10-14T14:14:09.661Z,1.30
2022-10-14T14:19:20.270Z,1.30
2022-10-14T14:24:25.058Z,1.20
2022-10-14T14:29:29.922Z,1.88
2022-10-14T14:34:35.559Z,3.60
2022-10-14T14:39:40.350Z,1.33
2022-10-14T14:44:46.028Z,1.30
2022-10-14T14:50:01.410Z,0.90
2022-10-14T14:55:34.740Z,1.10
2022-10-14T15:00:37.339Z,1.48
2022-10-14T15:05:41.601Z,1.58
2022-10-14T15:10:48.372Z,1.25
2022-10-14T15:15:53.768Z,1.35
2022-10-14T15:21:18.903Z,1.30
2022-10-14T15:26:29.418Z,3.38
2022-10-14T15:31:32.169Z,1.77
2022-10-14T15:36:36.247Z,1.40
2022-10-14T15:41:39.363Z,1.58
2022-10-14T15:47:02.119Z,1.17
2022-10-14T15:52:06.158Z,2.00
2022-10-14T15:57:11.270Z,1.58
2022-10-14T16:02:19.098Z,2.60
2022-10-14T16:07:23.357Z,1.50
2022-10-14T16:12:27.586Z,1.40
2022-10-14T16:17:31.993Z,1.50
2022-10-14T16:22:36.126Z,1.80
2022-10-14T16:27:39.017Z,1.48
2022-10-14T16:32:42.103Z,1.52
2022-10-14T16:37:46.072Z,1.60
2022-10-14T16:42:49.186Z,1.48
2022-10-14T16:47:54.319Z,1.65
2022-10-14T16:53:16.063Z,2.95
2022-10-14T16:58:18.683Z,2.22
2022-10-14T17:03:21.442Z,1.52
2022-10-14T17:08:28.850Z,1.55
2022-10-14T17:13:31.841Z,2.30
2022-10-14T17:18:35.731Z,2.00
2022-10-14T17:23:42.392Z,3.28
2022-10-14T17:28:46.026Z,2.38
2022-10-14T17:33:48.782Z,2.15
2022-10-14T17:38:53.123Z,2.20
2022-10-14T17:43:57.206Z,3.08
2022-10-14T17:49:01.628Z,2.85
2022-10-14T17:54:07.796Z,2.85
2022-10-14T17:59:13.992Z,3.15
2022-10-14T18:04:17.224Z,2.88
2022-10-14T18:09:21.348Z,2.50
2022-10-14T18:14:25.059Z,2.70
2022-10-14T18:19:28.097Z,2.50
2022-10-14T18:24:32.417Z,2.80
2022-10-14T18:29:35.188Z,2.33
2022-10-14T18:34:37.922Z,3.30
2022-10-14T18:39:42.250Z,3.25
2022-10-14T18:44:45.089Z,3.17
2022-10-14T18:49:53.232Z,3.47
2022-10-14T18:54:58.004Z,5.50
2022-10-14T19:00:00.584Z,5.63
2022-10-14T19:05:03.204Z,4.18
2022-10-14T19:10:08.249Z,3.63
2022-10-14T19:15:12.080Z,3.25
2022-10-14T19:20:15.154Z,3.47
2022-10-14T19:25:20.487Z,3.60
2022-10-14T19:30:23.165Z,2.78
2022-10-14T19:35:25.757Z,2.38
2022-10-14T19:40:29.909Z,2.40
2022-10-14T19:45:32.561Z,2.67
2022-10-14T19:50:35.179Z,2.60
2022-10-14T19:55:39.584Z,3.13
2022-10-14T20:00:42.278Z,2.95
2022-10-14T20:05:44.961Z,2.88
2022-10-14T20:10:48.942Z,3.08
2022-10-14T20:15:55.036Z,3.13
2022-10-14T20:20:57.717Z,3.35
2022-10-14T20:26:02.767Z,6.47
2022-10-14T20:31:07.047Z,4.72
2022-10-14T20:36:12.874Z,3.80
2022-10-14T20:41:19.046Z,3.67
2022-10-14T20:46:23.177Z,4.03
2022-10-14T20:51:26.017Z,4.15
2022-10-14T20:56:31.176Z,3.30
2022-10-14T21:01:35.411Z,4.40
2022-10-14T21:06:39.246Z,4.20
2022-10-14T21:11:44.552Z,4.82
2022-10-14T21:16:47.381Z,3.97
2022-10-14T21:21:50.112Z,4.55
2022-10-14T21:26:55.411Z,3.60
2022-10-14T21:31:58.173Z,4.10
2022-10-14T21:37:00.817Z,3.22
2022-10-14T21:42:05.058Z,4.78
2022-10-14T21:47:07.636Z,4.30
2022-10-14T21:52:14.134Z,4.47
2022-10-14T21:57:18.130Z,4.75
2022-10-14T22:02:22.522Z,4.72
2022-10-14T22:07:25.631Z,5.47
2022-10-14T22:12:30.642Z,5.13
2022-10-14T22:17:33.610Z,4.00
2022-10-14T22:22:36.288Z,4.60
2022-10-14T22:27:40.232Z,5.20
2022-10-14T22:32:42.906Z,4.50
2022-10-14T22:37:45.534Z,3.40
2022-10-14T22:42:51.550Z,3.35
2022-10-14T22:47:54.334Z,3.88
2022-10-14T22:52:56.962Z,4.25
2022-10-14T22:58:00.900Z,4.03
2022-10-14T23:03:03.519Z,3.70
2022-10-14T23:08:09.797Z,4.28
2022-10-14T23:13:13.729Z,4.32
2022-10-14T23:18:16.338Z,4.70
2022-10-14T23:23:19.209Z,4.45
2022-10-14T23:28:23.185Z,4.05
2022-10-14T23:33:26.019Z,4.10
2022-10-14T23:38:28.654Z,3.42
2022-10-14T23:43:32.774Z,3.72
2022-10-14T23:48:35.751Z,3.70
2022-10-14T23:53:38.329Z,3.85
2022-10-14T23:58:42.347Z,4.15
